createdAt,value
2022-12-08T00:01:24.783Z,68.75
2022-12-08T00:03:52.078Z,65.50
2022-12-08T00:06:42.765Z,68.78
2022-12-08T00:09:24.341Z,67.55
2022-12-08T00:11:55.944Z,65.20
2022-12-08T00:14:24.289Z,66.32
2022-12-08T00:16:51.063Z,65.93
2022-12-08T00:19:18.065Z,66.57
2022-12-08T00:21:44.992Z,65.78
2022-12-08T00:24:11.766Z,67.57
2022-12-08T00:26:38.602Z,67.00
2022-12-08T00:29:05.566Z,68.00
2022-12-08T00:31:32.832Z,67.28
2022-12-08T00:34:00.164Z,67.97
2022-12-08T00:36:27.358Z,65.18
2022-12-08T00:38:54.085Z,63.15
2022-12-08T00:41:40.912Z,65.82
2022-12-08T00:44:08.383Z,65.53
2022-12-08T00:46:35.419Z,64.65
2022-12-08T00:49:03.396Z,66.80
2022-12-08T00:51:30.381Z,65.05
2022-12-08T00:53:57.282Z,67.55
2022-12-08T00:56:24.156Z,68.75
2022-12-08T00:58:51.060Z,68.10
2022-12-08T01:01:19.260Z,162.77
2022-12-08T01:03:46.075Z,70.85
2022-12-08T01:06:12.920Z,69.43
2022-12-08T01:08:40.163Z,69.53
2022-12-08T01:11:08.228Z,66.88
2022-12-08T01:13:35.630Z,69.07
2022-12-08T01:16:02.555Z,68.63
2022-12-08T01:18:29.353Z,69.72
2022-12-08T01:20:56.089Z,67.85
2022-12-08T01:23:22.861Z,67.28
2022-12-08T01:25:49.502Z,69.95
2022-12-08T01:28:16.208Z,71.70
2022-12-08T01:30:43.530Z,69.43
2022-12-08T01:33:10.362Z,69.47
2022-12-08T01:35:37.178Z,67.65
2022-12-08T01:38:03.813Z,67.95
2022-12-08T01:40:30.546Z,69.63
2022-12-08T01:42:57.285Z,64.15
2022-12-08T01:45:31.297Z,66.90
2022-12-08T01:50:25.618Z,61.33
2022-12-08T01:52:54.985Z,57.53
2022-12-08T01:55:28.895Z,55.38
2022-12-08T02:00:22.848Z,51.85
2022-12-08T02:02:52.631Z,53.20
2022-12-08T02:05:20.708Z,54.05
2022-12-08T02:07:48.458Z,54.28
2022-12-08T02:10:17.109Z,53.15
2022-12-08T02:12:43.987Z,52.50
2022-12-08T02:15:11.090Z,54.08
2022-12-08T02:17:49.580Z,53.50
2022-12-08T02:20:35.147Z,52.60
2022-12-08T02:23:10.872Z,50.40
2022-12-08T02:25:42.351Z,48.95
2022-12-08T02:28:17.980Z,49.97
2022-12-08T02:30:58.477Z,49.17
2022-12-08T02:33:49.033Z,50.88
2022-12-08T02:36:35.971Z,48.25
2022-12-08T02:39:08.942Z,49.35
2022-12-08T02:41:46.557Z,47.33
2022-12-08T02:44:13.206Z,48.58
2022-12-08T02:46:42.499Z,50.10
2022-12-08T02:49:09.756Z,47.65
2022-12-08T02:51:36.433Z,50.45
2022-12-08T02:54:03.658Z,52.17
2022-12-08T02:56:49.211Z,52.28
2022-12-08T02:59:18.882Z,52.83
2022-12-08T03:02:04.563Z,54.85
2022-12-08T03:04:31.416Z,52.25
2022-12-08T03:07:06.712Z,54.75
2022-12-08T03:09:33.356Z,57.50
2022-12-08T03:12:05.805Z,54.75
2022-12-08T03:14:33.840Z,55.22
2022-12-08T03:17:00.721Z,56.92
2022-12-08T03:19:34.784Z,54.28
2022-12-08T03:22:03.587Z,51.85
2022-12-08T03:24:32.704Z,54.22
2022-12-08T03:27:01.889Z,53.00
2022-12-08T03:29:29.467Z,55.85
2022-12-08T03:31:58.262Z,54.45
2022-12-08T03:34:27.155Z,54.28
2022-12-08T03:36:54.331Z,53.53
2022-12-08T03:39:21.365Z,55.38
2022-12-08T03:41:48.053Z,54.63
2022-12-08T03:44:14.841Z,54.47
2022-12-08T03:46:41.494Z,55.25
2022-12-08T03:49:08.149Z,57.28
2022-12-08T03:51:34.893Z,56.13
2022-12-08T03:54:01.649Z,56.13
2022-12-08T03:56:32.805Z,56.22
2022-12-08T03:58:59.634Z,54.15
2022-12-08T04:01:26.357Z,54.17
2022-12-08T04:03:53.437Z,54.97
2022-12-08T04:06:20.322Z,56.40
2022-12-08T04:08:47.135Z,55.55
2022-12-08T04:11:14.017Z,52.70
2022-12-08T04:13:43.104Z,52.53
2022-12-08T04:16:14.783Z,54.17
2022-12-08T04:18:42.042Z,54.58
2022-12-08T04:21:09.054Z,54.15
2022-12-08T04:23:35.882Z,54.10
2022-12-08T04:26:02.917Z,54.28
2022-12-08T04:28:29.721Z,54.22
2022-12-08T04:30:56.661Z,53.97
2022-12-08T04:33:23.637Z,57.20
2022-12-08T04:35:50.430Z,56.60
2022-12-08T04:38:17.293Z,55.60
2022-12-08T04:40:44.115Z,52.72
2022-12-08T04:43:10.950Z,56.83
2022-12-08T04:45:41.016Z,54.67
2022-12-08T04:48:08.108Z,53.92
2022-12-08T04:50:35.050Z,56.25
2022-12-08T04:53:01.858Z,55.40
2022-12-08T04:55:28.551Z,56.28
2022-12-08T04:57:55.272Z,55.40
2022-12-08T05:00:22.074Z,55.63
2022-12-08T05:02:48.832Z,55.08
2022-12-08T05:05:15.639Z,56.28
2022-12-08T05:07:42.365Z,54.38
2022-12-08T05:10:09.408Z,55.05
2022-12-08T05:12:36.382Z,55.97
2022-12-08T05:15:04.058Z,57.92
2022-12-08T05:17:31.001Z,56.53
2022-12-08T05:19:58.833Z,59.33
2022-12-08T05:22:25.856Z,59.88
2022-12-08T05:24:52.616Z,59.30
2022-12-08T05:27:19.420Z,56.45
2022-12-08T05:29:48.083Z,57.33
2022-12-08T05:32:14.968Z,57.63
2022-12-08T05:34:43.783Z,56.22
2022-12-08T05:37:10.512Z,55.95
2022-12-08T05:39:37.302Z,54.38
2022-12-08T05:42:04.146Z,53.70
2022-12-08T05:44:31.232Z,54.80
2022-12-08T05:46:58.272Z,54.97
2022-12-08T05:49:25.672Z,58.13
2022-12-08T05:51:52.637Z,57.20
2022-12-08T05:54:20.579Z,55.75
2022-12-08T05:56:47.329Z,54.85
2022-12-08T05:59:14.267Z,56.00
2022-12-08T06:01:42.570Z,57.63
2022-12-08T06:04:09.485Z,55.03
2022-12-08T06:06:36.228Z,56.47
2022-12-08T06:09:03.808Z,55.33
2022-12-08T06:11:31.416Z,56.83
2022-12-08T06:13:58.413Z,54.60
2022-12-08T06:16:26.348Z,54.40
2022-12-08T06:18:53.538Z,53.72
2022-12-08T06:21:20.275Z,52.47
2022-12-08T06:23:51.232Z,51.47
2022-12-08T06:26:18.599Z,53.90
2022-12-08T06:28:45.536Z,52.70
2022-12-08T06:31:23.003Z,55.75
2022-12-08T06:33:49.851Z,53.35
2022-12-08T06:36:17.330Z,54.80
2022-12-08T06:38:44.280Z,52.13
2022-12-08T06:41:11.849Z,50.72
2022-12-08T06:43:39.627Z,52.58
2022-12-08T06:46:08.392Z,52.72
2022-12-08T06:48:36.490Z,50.58
2022-12-08T06:51:10.852Z,52.03
2022-12-08T06:53:38.125Z,51.33
2022-12-08T06:56:05.825Z,51.03
2022-12-08T06:58:32.841Z,53.13
2022-12-08T07:01:19.938Z,51.83
2022-12-08T07:03:47.801Z,51.05
2022-12-08T07:06:15.988Z,51.60
2022-12-08T07:08:42.749Z,51.13
2022-12-08T07:11:10.468Z,51.17
2022-12-08T07:13:37.372Z,49.45
2022-12-08T07:16:08.174Z,51.28
2022-12-08T07:18:35.736Z,51.10
2022-12-08T07:21:06.260Z,50.63
2022-12-08T07:23:33.132Z,48.55
2022-12-08T07:26:00.554Z,49.78
2022-12-08T07:28:27.249Z,49.00
2022-12-08T07:30:54.167Z,50.92
2022-12-08T07:33:20.890Z,50.42
2022-12-08T07:35:53.980Z,51.63
2022-12-08T07:38:21.321Z,51.13
2022-12-08T07:40:48.462Z,52.15
2022-12-08T07:43:15.583Z,49.50
2022-12-08T07:45:42.729Z,51.40
2022-12-08T07:48:10.249Z,52.17
2022-12-08T07:50:37.432Z,49.88
2022-12-08T07:53:04.112Z,49.97
2022-12-08T07:55:30.798Z,49.47
2022-12-08T07:57:57.504Z,47.85
2022-12-08T08:00:24.297Z,46.60
2022-12-08T08:02:51.041Z,45.40
2022-12-08T08:05:17.831Z,47.53
2022-12-08T08:07:46.675Z,49.15
2022-12-08T08:10:13.628Z,49.47
2022-12-08T08:12:40.486Z,69.85
2022-12-08T08:15:08.392Z,49.00
2022-12-08T08:17:36.599Z,47.75
2022-12-08T08:20:07.177Z,47.50
2022-12-08T08:22:34.557Z,50.97
2022-12-08T08:25:03.791Z,49.38
2022-12-08T08:27:31.848Z,49.50
2022-12-08T08:30:00.730Z,51.17
2022-12-08T08:32:30.229Z,49.15
2022-12-08T08:35:01.081Z,48.78
2022-12-08T08:37:28.035Z,47.15
2022-12-08T08:40:00.679Z,47.17
2022-12-08T08:42:30.589Z,49.78
2022-12-08T08:45:02.080Z,50.22
2022-12-08T08:47:30.440Z,47.53
2022-12-08T08:50:02.589Z,50.95
2022-12-08T08:52:30.823Z,48.08
2022-12-08T08:55:01.564Z,51.47
2022-12-08T08:57:36.690Z,50.88
2022-12-08T09:00:10.687Z,49.15
2022-12-08T09:02:40.490Z,49.95
2022-12-08T09:05:10.168Z,50.75
2022-12-08T09:07:40.806Z,51.03
2022-12-08T09:10:08.935Z,53.40
2022-12-08T09:12:37.881Z,54.65
2022-12-08T09:15:04.791Z,50.55
2022-12-08T09:17:34.459Z,52.28
2022-12-08T09:20:08.343Z,54.83
2022-12-08T09:22:40.796Z,51.30
2022-12-08T09:25:09.595Z,51.78
2022-12-08T09:27:39.662Z,49.78
2022-12-08T09:30:14.615Z,48.80
2022-12-08T09:32:45.502Z,48.30
2022-12-08T09:35:13.566Z,48.17
2022-12-08T09:37:41.961Z,48.72
2022-12-08T09:40:10.999Z,52.88
2022-12-08T09:42:52.320Z,48.45
2022-12-08T09:45:24.849Z,50.00
2022-12-08T09:48:06.031Z,48.67
2022-12-08T09:50:37.786Z,51.78
2022-12-08T09:53:20.481Z,49.00
2022-12-08T09:55:58.077Z,47.30
2022-12-08T09:58:38.493Z,47.50
2022-12-08T10:01:08.888Z,47.28
2022-12-08T10:03:36.216Z,47.38
2022-12-08T10:06:03.011Z,45.80
2022-12-08T10:08:42.748Z,44.90
2022-12-08T10:11:19.452Z,44.63
2022-12-08T10:13:57.623Z,44.47
2022-12-08T10:16:36.557Z,48.33
2022-12-08T10:19:21.522Z,44.03
2022-12-08T10:21:57.275Z,43.50
2022-12-08T10:24:27.098Z,45.30
2022-12-08T10:27:09.448Z,43.17
2022-12-08T10:29:41.029Z,43.40
2022-12-08T10:32:19.736Z,43.95
2022-12-08T10:35:07.399Z,43.83
2022-12-08T10:37:34.659Z,42.45
2022-12-08T10:40:02.063Z,45.25
2022-12-08T10:42:39.675Z,45.28
2022-12-08T10:45:21.058Z,42.97
2022-12-08T10:48:04.670Z,45.22
2022-12-08T10:50:31.828Z,43.83
2022-12-08T10:53:01.466Z,44.78
2022-12-08T10:55:45.724Z,44.13
2022-12-08T10:58:27.580Z,45.25
2022-12-08T11:01:02.688Z,46.15
2022-12-08T11:03:30.919Z,45.38
2022-12-08T11:06:07.044Z,45.75
2022-12-08T11:08:48.546Z,44.63
2022-12-08T11:11:16.943Z,45.20
2022-12-08T11:13:46.543Z,44.20
2022-12-08T11:16:14.845Z,45.15
2022-12-08T11:18:50.976Z,44.58
2022-12-08T11:21:21.515Z,43.65
2022-12-08T11:23:49.856Z,44.63
2022-12-08T11:26:31.639Z,44.20
2022-12-08T11:29:03.895Z,43.40
2022-12-08T11:31:35.302Z,42.47
2022-12-08T11:34:06.598Z,43.25
2022-12-08T11:36:35.594Z,45.17
2022-12-08T11:39:06.425Z,43.38
2022-12-08T11:41:38.518Z,43.78
2022-12-08T11:44:22.499Z,45.85
2022-12-08T11:47:01.886Z,46.42
2022-12-08T11:49:37.421Z,47.17
2022-12-08T11:52:05.789Z,43.85
2022-12-08T11:54:35.517Z,44.40
2022-12-08T11:57:08.790Z,44.83
2022-12-08T11:59:41.823Z,44.38
2022-12-08T12:02:15.462Z,44.37
2022-12-08T12:04:46.293Z,41.28
2022-12-08T12:07:35.667Z,38.67
2022-12-08T12:10:31.774Z,38.78
2022-12-08T12:13:16.965Z,40.70
2022-12-08T12:15:43.672Z,39.47
2022-12-08T12:18:19.519Z,38.05
2022-12-08T12:20:55.406Z,38.83
2022-12-08T12:23:40.245Z,38.20
2022-12-08T12:26:08.958Z,39.28
2022-12-08T12:28:56.510Z,37.15
2022-12-08T12:31:26.381Z,39.78
2022-12-08T12:33:55.380Z,39.17
2022-12-08T12:36:23.033Z,38.92
2022-12-08T12:39:10.286Z,38.95
2022-12-08T12:41:43.685Z,40.05
2022-12-08T12:44:13.529Z,40.75
2022-12-08T12:46:46.465Z,38.95
2022-12-08T12:49:31.872Z,37.30
2022-12-08T12:51:58.651Z,37.58
2022-12-08T12:54:27.287Z,39.55
2022-12-08T12:56:56.224Z,38.97
2022-12-08T12:59:29.541Z,38.47
2022-12-08T13:01:57.265Z,38.70
2022-12-08T13:04:31.357Z,40.28
2022-12-08T13:06:58.439Z,40.95
2022-12-08T13:09:36.681Z,38.95
2022-12-08T13:12:11.062Z,41.00
2022-12-08T13:14:46.785Z,44.22
2022-12-08T13:17:16.658Z,45.35
2022-12-08T13:19:51.681Z,46.72
2022-12-08T13:22:39.022Z,51.72
2022-12-08T13:25:24.498Z,46.17
2022-12-08T13:27:54.730Z,41.80
2022-12-08T13:30:41.433Z,41.67
2022-12-08T13:33:19.571Z,39.15
2022-12-08T13:35:49.243Z,40.28
2022-12-08T13:38:18.073Z,42.42
2022-12-08T13:40:46.377Z,41.55
2022-12-08T13:43:16.207Z,40.72
2022-12-08T13:46:57.519Z,43.00
2022-12-08T13:57:28.867Z,42.88
2022-12-08T14:00:00.074Z,44.03
2022-12-08T14:02:29.600Z,44.30
2022-12-08T14:07:44.463Z,46.88
2022-12-08T14:10:16.829Z,49.08
2022-12-08T14:12:46.423Z,48.75
2022-12-08T14:15:15.293Z,50.67
2022-12-08T14:17:54.192Z,46.85
2022-12-08T14:20:26.769Z,46.80
2022-12-08T14:22:53.899Z,49.65
2022-12-08T14:25:21.667Z,49.80
2022-12-08T14:27:49.058Z,48.33
2022-12-08T14:30:19.313Z,49.45
2022-12-08T14:32:50.728Z,49.50
2022-12-08T14:35:23.725Z,46.45
2022-12-08T14:37:52.901Z,49.47
2022-12-08T14:40:23.522Z,50.58
2022-12-08T14:42:52.906Z,50.03
2022-12-08T14:45:20.467Z,47.80
2022-12-08T14:47:48.716Z,48.72
2022-12-08T14:50:34.071Z,47.70
2022-12-08T14:53:00.913Z,54.20
2022-12-08T14:55:28.777Z,56.63
2022-12-08T14:57:55.671Z,51.65
2022-12-08T15:00:22.762Z,59.78
2022-12-08T15:02:49.604Z,54.35
2022-12-08T15:05:18.745Z,54.33
2022-12-08T15:07:46.604Z,50.88
2022-12-08T15:10:16.707Z,47.90
2022-12-08T15:13:00.168Z,49.25
2022-12-08T15:15:27.577Z,46.30
2022-12-08T15:18:16.609Z,47.85
2022-12-08T15:20:48.540Z,47.17
2022-12-08T15:23:27.150Z,46.55
2022-12-08T15:25:54.619Z,46.33
2022-12-08T15:28:26.652Z,44.78
2022-12-08T15:30:56.989Z,46.85
2022-12-08T15:33:23.805Z,44.40
2022-12-08T15:35:51.203Z,45.45
2022-12-08T15:38:23.488Z,48.95
2022-12-08T15:40:50.762Z,46.42
2022-12-08T15:43:17.917Z,43.85
2022-12-08T15:45:57.776Z,43.28
2022-12-08T15:48:30.920Z,42.85
2022-12-08T15:50:57.737Z,44.28
2022-12-08T15:53:24.469Z,44.40
2022-12-08T15:56:25.753Z,45.75
2022-12-08T15:58:57.885Z,42.42
2022-12-08T16:01:25.835Z,43.65
2022-12-08T16:04:27.928Z,44.58
2022-12-08T16:09:30.993Z,43.83
2022-12-08T16:12:17.408Z,46.22
2022-12-08T16:15:47.076Z,47.17
2022-12-08T16:17:32.144Z,49.17
2022-12-08T16:20:00.067Z,49.88
2022-12-08T16:25:20.557Z,51.63
2022-12-08T16:28:36.897Z,46.65
2022-12-08T16:30:38.916Z,47.80
2022-12-08T16:33:05.592Z,49.15
2022-12-08T16:35:32.276Z,46.58
2022-12-08T16:37:59.008Z,46.55
2022-12-08T16:40:26.715Z,44.45
2022-12-08T16:42:53.551Z,46.75
2022-12-08T16:45:24.644Z,45.35
2022-12-08T16:47:53.428Z,53.83
2022-12-08T16:50:23.182Z,48.63
2022-12-08T16:52:50.721Z,49.63
2022-12-08T16:55:18.343Z,46.83
2022-12-08T16:57:46.124Z,46.47
2022-12-08T17:00:15.295Z,49.00
2022-12-08T17:02:42.225Z,52.05
2022-12-08T17:05:10.996Z,53.65
2022-12-08T17:07:37.765Z,53.90
2022-12-08T17:10:08.170Z,51.88
2022-12-08T17:12:38.142Z,49.88
2022-12-08T17:15:05.812Z,48.97
2022-12-08T17:17:35.350Z,53.45
2022-12-08T17:20:05.123Z,57.45
2022-12-08T17:22:32.983Z,49.67
2022-12-08T17:25:00.218Z,51.20
2022-12-08T17:27:27.315Z,43.53
2022-12-08T17:29:54.038Z,49.20
2022-12-08T17:32:20.920Z,51.10
2022-12-08T17:34:48.353Z,46.28
2022-12-08T17:37:16.723Z,55.47
2022-12-08T17:39:43.461Z,48.58
2022-12-08T17:42:10.352Z,45.88
2022-12-08T17:44:37.088Z,47.90
2022-12-08T17:47:04.189Z,49.40
2022-12-08T17:49:31.335Z,45.10
2022-12-08T17:51:59.276Z,45.28
2022-12-08T17:54:26.429Z,46.13
2022-12-08T17:56:53.280Z,48.20
2022-12-08T17:59:20.036Z,48.78
2022-12-08T18:01:46.873Z,48.72
2022-12-08T18:04:13.733Z,48.05
2022-12-08T18:06:40.539Z,54.63
2022-12-08T18:09:07.882Z,48.38
2022-12-08T18:11:35.037Z,46.75
2022-12-08T18:14:09.352Z,47.65
2022-12-08T18:16:37.122Z,49.35
2022-12-08T18:19:04.464Z,49.20
2022-12-08T18:21:31.363Z,50.17
2022-12-08T18:23:58.220Z,49.40
2022-12-08T18:26:25.266Z,46.22
2022-12-08T18:28:51.910Z,44.38
2022-12-08T18:31:20.305Z,53.72
2022-12-08T18:33:47.571Z,50.85
2022-12-08T18:36:15.575Z,50.92
2022-12-08T18:38:42.703Z,48.45
2022-12-08T18:41:13.690Z,51.47
2022-12-08T18:43:40.702Z,49.08
2022-12-08T18:46:09.739Z,52.03
2022-12-08T18:48:38.406Z,57.20
2022-12-08T18:51:10.202Z,54.67
2022-12-08T18:53:37.008Z,60.72
2022-12-08T18:56:04.068Z,58.05
2022-12-08T18:58:30.924Z,54.78
2022-12-08T19:00:58.911Z,55.08
2022-12-08T19:03:26.173Z,54.50
2022-12-08T19:06:03.290Z,53.55
2022-12-08T19:08:31.708Z,58.53
2022-12-08T19:10:59.171Z,59.08
2022-12-08T19:13:27.246Z,52.00
2022-12-08T19:15:54.198Z,52.72
2022-12-08T19:18:20.924Z,49.92
2022-12-08T19:20:48.561Z,52.10
2022-12-08T19:23:15.516Z,51.35
2022-12-08T19:25:42.237Z,51.03
2022-12-08T19:28:08.857Z,48.35
2022-12-08T19:30:35.585Z,49.38
2022-12-08T19:33:02.464Z,47.55
2022-12-08T19:35:29.206Z,49.95
2022-12-08T19:37:55.871Z,46.67
2022-12-08T19:40:43.913Z,48.67
2022-12-08T19:43:32.352Z,50.38
2022-12-08T19:45:59.747Z,54.72
2022-12-08T19:48:27.372Z,52.67
2022-12-08T19:50:54.030Z,53.05
2022-12-08T19:53:21.041Z,52.45
2022-12-08T19:55:47.730Z,54.10
2022-12-08T19:58:14.792Z,51.33
2022-12-08T20:00:42.093Z,50.40
2022-12-08T20:03:08.840Z,50.88
2022-12-08T20:05:36.294Z,52.45
2022-12-08T20:08:03.357Z,50.10
2022-12-08T20:10:33.658Z,52.15
2022-12-08T20:13:39.350Z,50.88
2022-12-08T20:16:06.526Z,51.95
2022-12-08T20:18:39.875Z,46.40
2022-12-08T20:21:07.460Z,48.88
2022-12-08T20:23:34.677Z,49.28
2022-12-08T20:26:04.087Z,48.50
2022-12-08T20:28:30.821Z,47.15
2022-12-08T20:30:57.576Z,48.85
2022-12-08T20:33:24.287Z,47.55
2022-12-08T20:36:01.035Z,50.42
2022-12-08T20:38:28.906Z,53.95
2022-12-08T20:40:56.494Z,49.08
2022-12-08T20:43:23.413Z,46.30
2022-12-08T20:45:50.680Z,46.28
2022-12-08T20:48:18.027Z,45.67
2022-12-08T20:50:44.813Z,44.80
2022-12-08T20:53:11.590Z,44.67
2022-12-08T20:55:40.601Z,45.60
2022-12-08T20:58:07.658Z,48.45
2022-12-08T21:00:34.480Z,53.83
2022-12-08T21:03:01.597Z,65.03
2022-12-08T21:05:28.599Z,55.90
2022-12-08T21:07:55.487Z,48.22
2022-12-08T21:10:22.259Z,44.67
2022-12-08T21:12:49.097Z,43.92
2022-12-08T21:15:15.940Z,49.15
2022-12-08T21:17:43.102Z,49.17
2022-12-08T21:20:11.213Z,48.17
2022-12-08T21:22:40.319Z,47.72
2022-12-08T21:25:07.671Z,46.13
2022-12-08T21:27:34.392Z,47.08
2022-12-08T21:30:01.136Z,47.47
2022-12-08T21:32:30.599Z,48.35
2022-12-08T21:34:57.938Z,47.90
2022-12-08T21:37:24.667Z,49.55
2022-12-08T21:39:51.529Z,48.47
2022-12-08T21:42:37.108Z,51.22
2022-12-08T21:45:04.258Z,50.80
2022-12-08T21:47:31.210Z,52.63
2022-12-08T21:49:58.115Z,54.28
2022-12-08T21:52:24.835Z,52.90
2022-12-08T21:54:51.764Z,50.75
2022-12-08T21:57:18.681Z,52.17
2022-12-08T21:59:45.334Z,52.38
2022-12-08T22:02:15.655Z,52.97
2022-12-08T22:04:48.495Z,53.22
2022-12-08T22:07:16.007Z,56.28
2022-12-08T22:09:42.794Z,54.78
2022-12-08T22:12:11.867Z,54.97
2022-12-08T22:14:39.932Z,57.38
2022-12-08T22:17:07.186Z,59.72
2022-12-08T22:19:34.128Z,59.97
2022-12-08T22:22:01.112Z,58.05
2022-12-08T22:24:29.854Z,58.53
2022-12-08T22:26:56.763Z,55.65
2022-12-08T22:29:23.742Z,61.58
2022-12-08T22:31:50.443Z,64.50
2022-12-08T22:34:17.153Z,63.08
2022-12-08T22:36:44.475Z,64.60
2022-12-08T22:39:12.221Z,63.17
2022-12-08T22:41:38.922Z,60.95
2022-12-08T22:44:06.199Z,59.20
2022-12-08T22:46:32.995Z,59.83
2022-12-08T22:48:59.868Z,59.33
2022-12-08T22:51:26.734Z,59.75
2022-12-08T22:54:01.658Z,61.93
2022-12-08T22:56:28.516Z,63.55
2022-12-08T22:58:55.196Z,64.65
2022-12-08T23:01:22.138Z,64.63
2022-12-08T23:03:49.278Z,60.55
2022-12-08T23:06:16.410Z,61.63
2022-12-08T23:08:43.944Z,62.00
2022-12-08T23:11:11.129Z,59.38
2022-12-08T23:13:39.521Z,58.80
2022-12-08T23:16:09.903Z,57.60
2022-12-08T23:18:37.088Z,58.65
2022-12-08T23:21:08.334Z,59.22
2022-12-08T23:23:35.463Z,60.00
2022-12-08T23:26:02.248Z,61.20
2022-12-08T23:28:28.950Z,59.70
2022-12-08T23:30:55.714Z,65.25
2022-12-08T23:33:22.607Z,64.82
2022-12-08T23:35:58.637Z,64.38
2022-12-08T23:38:25.593Z,99.50
2022-12-08T23:40:52.821Z,67.15
2022-12-08T23:43:20.104Z,67.85
2022-12-08T23:45:47.616Z,65.75
2022-12-08T23:48:15.039Z,66.35
2022-12-08T23:50:42.342Z,66.78
2022-12-08T23:53:09.169Z,67.97
2022-12-08T23:55:35.936Z,66.30
2022-12-08T23:58:02.717Z,62.47
